Time;durP1;ratioP1;P1;durP2;ratioP2;P2;SDS_P1;SDS_P2;PMS_P1;PMS_P2;Temp;Humidity;BMP_temperature;BMP_pressure;BME280_temperature;BME280_humidity;BME280_pressure;Samples;Min_cycle;Max_cycle;Signal;HPM_P1;HPM_P2
2023/05/28 00:00:10;;;;;;;10.27;3.50;;;14.00;99.90;;;;;;4908398;29;20071;-34
2023/05/28 00:02:37;;;;;;;11.48;4.00;;;14.00;99.90;;;;;;4912011;29;20084;-35
2023/05/28 00:05:03;;;;;;;10.02;2.83;;;13.90;99.90;;;;;;4907042;29;20486;-34
2023/05/28 00:07:30;;;;;;;13.68;3.72;;;13.90;99.90;;;;;;4902854;29;20518;-34
2023/05/28 00:09:56;;;;;;;9.77;3.45;;;13.80;99.90;;;;;;4908969;29;20188;-34
2023/05/28 00:12:22;;;;;;;8.00;3.15;;;13.80;99.90;;;;;;4905839;29;20048;-34
2023/05/28 00:14:48;;;;;;;11.35;3.72;;;13.80;99.90;;;;;;4905655;29;20068;-34
2023/05/28 00:17:15;;;;;;;10.27;3.10;;;13.70;99.90;;;;;;4905854;29;20052;-34
2023/05/28 00:19:41;;;;;;;8.98;2.88;;;13.60;99.90;;;;;;4908445;29;21393;-34
2023/05/28 00:22:07;;;;;;;12.50;3.33;;;13.60;99.90;;;;;;4907522;29;20514;-34
2023/05/28 00:24:33;;;;;;;9.23;3.35;;;13.50;99.90;;;;;;4907379;29;20114;-35
2023/05/28 00:26:59;;;;;;;9.57;3.20;;;13.40;99.90;;;;;;4903604;29;20721;-34
2023/05/28 00:29:26;;;;;;;12.68;3.30;;;13.30;99.90;;;;;;4907236;29;20188;-34
2023/05/28 00:31:55;;;;;;;7.40;2.70;;;13.20;99.90;;;;;;4905315;29;20135;-35
2023/05/28 00:34:22;;;;;;;11.77;3.50;;;13.20;99.90;;;;;;4902771;29;20056;-34
2023/05/28 00:36:47;;;;;;;9.98;3.25;;;13.20;99.90;;;;;;4908135;29;20498;-34
2023/05/28 00:39:15;;;;;;;8.95;2.65;;;13.20;99.90;;;;;;4906480;29;20055;-34
2023/05/28 00:41:40;;;;;;;8.95;3.22;;;13.10;99.90;;;;;;4909051;29;20052;-34
2023/05/28 00:44:08;;;;;;;9.82;3.10;;;13.10;99.90;;;;;;4909162;29;20087;-34
2023/05/28 00:46:35;;;;;;;11.55;2.83;;;13.00;99.90;;;;;;4908340;29;20044;-34
2023/05/28 00:49:02;;;;;;;9.23;2.80;;;13.00;99.90;;;;;;4910615;29;20439;-34
2023/05/28 00:51:29;;;;;;;10.20;3.10;;;13.00;99.90;;;;;;4903769;29;20450;-34
2023/05/28 00:53:55;;;;;;;9.68;3.17;;;13.00;99.90;;;;;;4906238;29;20044;-34
2023/05/28 00:56:22;;;;;;;19.20;5.20;;;12.90;99.90;;;;;;4910594;29;20505;-34
2023/05/28 00:58:49;;;;;;;9.88;3.17;;;12.90;99.90;;;;;;4909197;29;20087;-34
2023/05/28 01:01:15;;;;;;;11.00;4.10;;;12.90;99.90;;;;;;4912238;29;20541;-34
2023/05/28 01:03:41;;;;;;;12.60;3.13;;;12.90;99.90;;;;;;4902751;29;20134;-34
2023/05/28 01:06:11;;;;;;;10.77;3.63;;;12.90;99.90;;;;;;4906194;29;20142;-34
2023/05/28 01:08:40;;;;;;;11.18;2.78;;;12.90;99.90;;;;;;4906409;29;20064;-34
2023/05/28 01:11:10;;;;;;;11.43;3.25;;;12.90;99.90;;;;;;4913327;29;20063;-34
2023/05/28 01:13:38;;;;;;;14.77;3.10;;;12.90;99.90;;;;;;4908562;29;20083;-34
2023/05/28 01:16:04;;;;;;;13.20;3.33;;;12.90;99.90;;;;;;4905982;29;20048;-34
2023/05/28 01:18:31;;;;;;;10.50;3.22;;;12.90;99.90;;;;;;4906391;29;20078;-34
2023/05/28 01:21:00;;;;;;;8.77;3.33;;;12.80;99.90;;;;;;4911731;29;20066;-34
2023/05/28 01:23:28;;;;;;;9.60;3.50;;;12.80;99.90;;;;;;4903526;29;20060;-34
2023/05/28 01:25:55;;;;;;;10.80;3.22;;;12.90;99.90;;;;;;4907073;29;20146;-34
2023/05/28 01:28:24;;;;;;;8.13;2.97;;;12.80;99.90;;;;;;4888856;29;20104;-34
2023/05/28 01:30:50;;;;;;;8.55;3.15;;;12.90;99.90;;;;;;4907898;29;20056;-34
2023/05/28 01:33:16;;;;;;;10.20;3.17;;;12.90;99.90;;;;;;4906244;29;20048;-34
2023/05/28 01:35:42;;;;;;;10.98;2.95;;;12.90;99.90;;;;;;4904112;29;20645;-34
2023/05/28 01:38:10;;;;;;;10.52;3.22;;;12.90;99.90;;;;;;4909278;29;20063;-34
2023/05/28 01:40:39;;;;;;;7.85;2.97;;;12.90;99.90;;;;;;4907085;29;20055;-34
2023/05/28 01:43:05;;;;;;;8.82;3.05;;;13.00;99.90;;;;;;4903040;29;20062;-34
2023/05/28 01:45:31;;;;;;;12.82;3.08;;;13.00;99.90;;;;;;4899102;29;20060;-34
2023/05/28 01:47:57;;;;;;;11.15;4.40;;;12.90;99.90;;;;;;4902512;29;20055;-34
2023/05/28 01:50:23;;;;;;;9.25;2.97;;;12.90;99.90;;;;;;4906029;29;20405;-34
2023/05/28 01:52:49;;;;;;;11.35;3.10;;;12.80;99.90;;;;;;4905647;29;20052;-34
2023/05/28 01:55:15;;;;;;;8.27;2.63;;;12.90;99.90;;;;;;4905458;29;20050;-34
2023/05/28 01:57:41;;;;;;;9.65;3.30;;;12.90;99.90;;;;;;4910599;29;20059;-34
2023/05/28 02:00:07;;;;;;;11.70;2.90;;;12.80;99.90;;;;;;4905088;29;20130;-34
2023/05/28 02:02:34;;;;;;;12.32;2.97;;;12.80;99.90;;;;;;4905102;29;20131;-34
2023/05/28 02:04:59;;;;;;;12.02;3.00;;;12.70;99.90;;;;;;4908247;29;20056;-34
2023/05/28 02:07:25;;;;;;;13.23;3.60;;;12.70;99.90;;;;;;4907524;29;20110;-34
2023/05/28 02:09:51;;;;;;;23.08;4.28;;;12.70;99.90;;;;;;4908932;29;20048;-34
2023/05/28 02:12:18;;;;;;;10.05;2.78;;;12.70;99.90;;;;;;4906313;29;20051;-34
2023/05/28 02:14:44;;;;;;;10.90;3.05;;;12.70;99.90;;;;;;4908678;29;20052;-34
2023/05/28 02:17:10;;;;;;;9.60;3.22;;;12.70;99.90;;;;;;4911483;29;20107;-34
2023/05/28 02:19:36;;;;;;;9.32;3.10;;;12.70;99.90;;;;;;4904137;29;20056;-34
2023/05/28 02:22:09;;;;;;;11.00;3.45;;;12.70;99.90;;;;;;4905422;29;20580;-34
2023/05/28 02:24:35;;;;;;;9.60;3.05;;;12.60;99.90;;;;;;4907913;29;20048;-34
2023/05/28 02:27:01;;;;;;;7.93;3.42;;;12.60;99.90;;;;;;4912321;29;20063;-34
2023/05/28 02:29:27;;;;;;;11.30;3.25;;;12.60;99.90;;;;;;4908704;29;20054;-34
2023/05/28 02:31:52;;;;;;;11.32;3.30;;;12.50;99.90;;;;;;4911266;29;20155;-34
2023/05/28 02:34:18;;;;;;;8.77;3.00;;;12.50;99.90;;;;;;4906804;29;20055;-34
2023/05/28 02:36:44;;;;;;;6.63;2.58;;;12.50;99.90;;;;;;4910677;29;20468;-34
2023/05/28 02:39:10;;;;;;;10.52;3.00;;;12.40;99.90;;;;;;4905287;29;20063;-34
2023/05/28 02:41:36;;;;;;;12.75;4.13;;;12.40;99.90;;;;;;4909158;29;20056;-34
2023/05/28 02:44:01;;;;;;;9.23;3.20;;;12.40;99.90;;;;;;4907666;29;20409;-34
2023/05/28 02:46:27;;;;;;;10.05;2.92;;;12.40;99.90;;;;;;4909979;29;20052;-34
2023/05/28 02:48:53;;;;;;;10.35;3.08;;;12.30;99.90;;;;;;4912595;29;20067;-34
2023/05/28 02:51:18;;;;;;;12.75;3.30;;;12.30;99.90;;;;;;4907999;29;20490;-35
2023/05/28 02:53:45;;;;;;;10.85;3.97;;;12.20;99.90;;;;;;4910397;29;20059;-34
2023/05/28 02:56:10;;;;;;;10.52;2.83;;;12.30;99.90;;;;;;4909821;29;20111;-34
2023/05/28 02:58:36;;;;;;;9.68;2.90;;;12.20;99.90;;;;;;4910149;29;20305;-34
2023/05/28 03:01:03;;;;;;;7.65;2.63;;;12.30;99.90;;;;;;4917134;29;20592;-34
2023/05/28 03:03:29;;;;;;;7.47;2.63;;;12.30;99.90;;;;;;4910710;29;20553;-34
2023/05/28 03:05:55;;;;;;;11.25;3.10;;;12.20;99.90;;;;;;4905460;29;20056;-34
2023/05/28 03:08:20;;;;;;;12.60;3.00;;;12.30;99.90;;;;;;4910363;29;20184;-34
2023/05/28 03:10:46;;;;;;;9.10;2.83;;;12.20;99.90;;;;;;4907905;29;20426;-34
2023/05/28 03:13:12;;;;;;;11.60;3.22;;;12.20;99.90;;;;;;4908950;29;20059;-35
2023/05/28 03:15:37;;;;;;;13.25;3.05;;;12.20;99.90;;;;;;4907754;29;20482;-34
2023/05/28 03:18:06;;;;;;;9.05;2.72;;;12.20;99.90;;;;;;4909324;29;20422;-34
2023/05/28 03:20:31;;;;;;;10.43;3.45;;;12.20;99.90;;;;;;4906626;29;20075;-35
2023/05/28 03:22:57;;;;;;;7.13;2.90;;;12.20;99.90;;;;;;4909470;29;20059;-34
2023/05/28 03:25:25;;;;;;;9.57;3.08;;;12.20;99.90;;;;;;4908968;29;20052;-34
2023/05/28 03:27:54;;;;;;;9.55;3.10;;;12.20;99.90;;;;;;4902751;29;20479;-34
2023/05/28 03:30:21;;;;;;;12.70;3.13;;;12.20;99.90;;;;;;4914619;29;20047;-34
2023/05/28 03:32:48;;;;;;;10.20;3.70;;;12.20;99.90;;;;;;4915880;29;20490;-34
2023/05/28 03:35:14;;;;;;;8.30;2.40;;;12.20;99.90;;;;;;4906795;29;20530;-34
2023/05/28 03:37:40;;;;;;;7.93;2.83;;;12.10;99.90;;;;;;4912624;29;20064;-34
2023/05/28 03:40:07;;;;;;;9.50;3.17;;;12.20;99.90;;;;;;4911097;29;20059;-34
2023/05/28 03:42:32;;;;;;;12.68;2.78;;;12.10;99.90;;;;;;4907009;29;20493;-34
2023/05/28 03:44:58;;;;;;;6.97;2.72;;;12.10;99.90;;;;;;4904164;29;20066;-34
2023/05/28 03:47:24;;;;;;;10.25;3.28;;;12.10;99.90;;;;;;4905318;29;20127;-34
2023/05/28 03:49:50;;;;;;;9.30;2.90;;;12.10;99.90;;;;;;4914490;29;20111;-34
2023/05/28 03:52:16;;;;;;;7.30;2.60;;;12.00;99.90;;;;;;4908066;29;20044;-34
2023/05/28 03:54:41;;;;;;;12.15;4.07;;;12.00;99.90;;;;;;4906049;29;20111;-34
2023/05/28 03:57:07;;;;;;;9.52;2.97;;;12.00;99.90;;;;;;4912286;29;20044;-34
2023/05/28 03:59:32;;;;;;;8.38;3.63;;;12.00;99.90;;;;;;4908516;29;20513;-35
2023/05/28 04:01:58;;;;;;;10.48;2.50;;;12.00;99.90;;;;;;4911065;29;20055;-35
2023/05/28 04:04:24;;;;;;;13.43;2.85;;;12.00;99.90;;;;;;4907763;29;20944;-34
2023/05/28 04:06:49;;;;;;;6.93;2.75;;;12.10;99.90;;;;;;4905437;29;20476;-34
2023/05/28 04:09:15;;;;;;;14.88;2.58;;;12.10;99.90;;;;;;4914333;29;20049;-35
2023/05/28 04:11:41;;;;;;;9.52;2.72;;;12.10;99.90;;;;;;4918578;29;20052;-34
2023/05/28 04:14:09;;;;;;;9.38;3.13;;;12.10;99.90;;;;;;4918670;29;20040;-34
2023/05/28 04:16:34;;;;;;;12.27;3.15;;;12.10;99.90;;;;;;4913977;29;20051;-34
2023/05/28 04:19:00;;;;;;;12.52;4.20;;;12.10;99.90;;;;;;4907682;29;20055;-34
2023/05/28 04:21:26;;;;;;;11.13;3.50;;;12.10;99.90;;;;;;4912107;29;20055;-35
2023/05/28 04:23:51;;;;;;;11.65;3.30;;;12.10;99.90;;;;;;4910264;29;20485;-35
2023/05/28 04:26:20;;;;;;;10.88;3.05;;;12.00;99.90;;;;;;4905696;29;20063;-34
2023/05/28 04:28:46;;;;;;;10.18;3.15;;;12.10;99.90;;;;;;4907344;29;20096;-35
2023/05/28 04:31:12;;;;;;;8.45;2.85;;;12.10;99.90;;;;;;4904584;29;20052;-34
2023/05/28 04:33:38;;;;;;;12.73;2.95;;;12.10;99.90;;;;;;4907939;29;20048;-35
2023/05/28 04:36:04;;;;;;;6.25;2.50;;;12.10;99.90;;;;;;4908585;29;20494;-34
2023/05/28 04:38:33;;;;;;;10.05;2.47;;;12.10;99.90;;;;;;4910464;29;20083;-34
2023/05/28 04:40:59;;;;;;;11.57;3.20;;;12.20;99.90;;;;;;4910167;29;20055;-34
2023/05/28 04:43:26;;;;;;;8.23;2.55;;;12.20;99.90;;;;;;4913524;29;20409;-35
2023/05/28 04:45:53;;;;;;;11.80;2.63;;;12.20;99.90;;;;;;4905929;29;20055;-35
2023/05/28 04:48:19;;;;;;;13.52;2.75;;;12.20;99.90;;;;;;4906470;29;20056;-35
2023/05/28 04:50:45;;;;;;;5.25;2.30;;;12.30;99.90;;;;;;4910433;29;20055;-35
2023/05/28 04:53:11;;;;;;;10.30;2.83;;;12.40;99.90;;;;;;4909768;29;20454;-35
2023/05/28 04:55:37;;;;;;;6.07;2.60;;;12.40;99.90;;;;;;4912920;29;20485;-34
2023/05/28 04:58:02;;;;;;;9.98;2.72;;;12.50;99.90;;;;;;4904458;29;20111;-34
2023/05/28 05:00:30;;;;;;;6.75;2.67;;;12.50;99.90;;;;;;4907771;29;20059;-35
2023/05/28 05:02:55;;;;;;;8.27;2.75;;;12.50;99.90;;;;;;4912088;29;20052;-34
2023/05/28 05:05:21;;;;;;;8.88;2.88;;;12.60;99.90;;;;;;4914715;29;20420;-35
2023/05/28 05:07:47;;;;;;;7.90;2.78;;;12.70;99.90;;;;;;4907766;29;20051;-34
2023/05/28 05:10:13;;;;;;;15.95;3.35;;;12.70;99.90;;;;;;4907850;29;20410;-34
2023/05/28 05:12:39;;;;;;;9.35;2.60;;;12.70;99.90;;;;;;4911820;29;20506;-34
2023/05/28 05:15:05;;;;;;;8.70;2.40;;;12.80;99.90;;;;;;4912347;29;20048;-35
2023/05/28 05:17:31;;;;;;;8.65;2.60;;;12.90;99.90;;;;;;4912936;29;20111;-34
2023/05/28 05:19:57;;;;;;;8.13;2.72;;;12.90;99.90;;;;;;4893960;29;20442;-35
2023/05/28 05:22:23;;;;;;;7.28;2.33;;;13.00;99.90;;;;;;4907202;29;20044;-35
2023/05/28 05:24:49;;;;;;;10.75;2.58;;;13.10;99.90;;;;;;4906357;29;20055;-34
2023/05/28 05:27:15;;;;;;;9.23;2.78;;;13.10;99.90;;;;;;4911794;29;20048;-35
2023/05/28 05:29:41;;;;;;;10.77;2.80;;;13.10;99.90;;;;;;4891005;29;20447;-35
2023/05/28 05:32:07;;;;;;;7.93;2.25;;;13.10;99.90;;;;;;4900672;29;20062;-35
2023/05/28 05:34:33;;;;;;;7.75;2.53;;;13.10;99.90;;;;;;4904289;29;20065;-35
2023/05/28 05:36:59;;;;;;;12.63;3.03;;;13.20;99.90;;;;;;4907201;29;20059;-35
2023/05/28 05:39:25;;;;;;;8.55;2.80;;;13.20;99.90;;;;;;4905044;29;20055;-35
2023/05/28 05:41:51;;;;;;;5.20;2.05;;;13.10;99.90;;;;;;4904425;29;20056;-35
2023/05/28 05:44:17;;;;;;;8.40;2.42;;;13.20;99.90;;;;;;4911318;29;20076;-34
2023/05/28 05:46:42;;;;;;;8.80;3.03;;;13.10;99.90;;;;;;4906198;29;20095;-34
2023/05/28 05:49:09;;;;;;;11.10;3.50;;;13.20;99.90;;;;;;4907707;29;20075;-34
2023/05/28 05:51:35;;;;;;;7.82;2.20;;;13.20;99.90;;;;;;4914352;29;20070;-34
2023/05/28 05:54:02;;;;;;;11.80;2.70;;;13.20;99.90;;;;;;4912399;29;20048;-34
2023/05/28 05:56:27;;;;;;;11.30;2.38;;;13.20;99.90;;;;;;4909859;29;20056;-34
2023/05/28 05:58:53;;;;;;;8.40;3.55;;;13.20;99.90;;;;;;4905609;29;20063;-35
2023/05/28 06:01:20;;;;;;;8.07;2.50;;;13.30;99.90;;;;;;4912783;29;20055;-35
2023/05/28 06:03:45;;;;;;;8.95;2.40;;;13.30;99.90;;;;;;4911160;29;20506;-34
2023/05/28 06:06:11;;;;;;;8.20;2.60;;;13.40;99.90;;;;;;4909566;29;20059;-35
2023/05/28 06:08:37;;;;;;;12.73;3.28;;;13.40;99.90;;;;;;4905324;29;20893;-35
2023/05/28 06:11:03;;;;;;;11.65;3.03;;;13.40;99.90;;;;;;4910195;29;20084;-34
2023/05/28 06:13:28;;;;;;;9.20;2.60;;;13.50;99.90;;;;;;4911440;29;20072;-35
2023/05/28 06:15:54;;;;;;;10.02;2.88;;;13.50;99.90;;;;;;4910211;29;20131;-35
2023/05/28 06:18:21;;;;;;;6.95;2.55;;;13.60;99.90;;;;;;4909946;29;20060;-34
2023/05/28 06:20:49;;;;;;;8.50;2.60;;;13.70;99.90;;;;;;4914020;29;20067;-35
2023/05/28 06:23:15;;;;;;;12.13;3.10;;;13.70;99.90;;;;;;4911774;29;20056;-35
2023/05/28 06:25:41;;;;;;;8.35;2.60;;;13.80;99.90;;;;;;4906625;29;20063;-34
2023/05/28 06:28:07;;;;;;;9.05;2.58;;;13.90;99.90;;;;;;4905922;29;20064;-35
2023/05/28 06:30:33;;;;;;;7.50;2.45;;;14.00;99.90;;;;;;4914940;29;20107;-35
2023/05/28 06:32:58;;;;;;;10.07;2.38;;;14.10;99.90;;;;;;4911566;29;20057;-35
2023/05/28 06:35:24;;;;;;;7.43;2.40;;;14.20;99.90;;;;;;4907785;29;20187;-35
2023/05/28 06:37:50;;;;;;;7.38;2.40;;;14.40;99.90;;;;;;4910288;29;20055;-34
2023/05/28 06:40:16;;;;;;;6.40;2.10;;;14.50;99.90;;;;;;4912146;29;20044;-34
2023/05/28 06:42:41;;;;;;;8.27;2.60;;;14.70;99.90;;;;;;4909667;29;20040;-34
2023/05/28 06:45:07;;;;;;;8.57;2.50;;;14.80;99.90;;;;;;4904090;29;20626;-34
2023/05/28 06:47:33;;;;;;;9.73;2.97;;;15.00;99.90;;;;;;4904600;29;20131;-34
2023/05/28 06:49:59;;;;;;;8.88;3.05;;;15.10;99.90;;;;;;4900113;29;20044;-34
2023/05/28 06:52:26;;;;;;;12.23;3.38;;;15.20;99.90;;;;;;4899865;29;20065;-34
2023/05/28 06:54:52;;;;;;;10.98;2.78;;;15.30;99.90;;;;;;4903002;29;20071;-35
2023/05/28 06:57:18;;;;;;;6.57;2.28;;;15.30;99.90;;;;;;4899091;29;20482;-34
2023/05/28 06:59:43;;;;;;;7.50;2.10;;;15.40;99.90;;;;;;4895166;29;20063;-34
2023/05/28 07:02:09;;;;;;;9.52;2.92;;;15.60;99.90;;;;;;4901490;29;20155;-34
2023/05/28 07:04:35;;;;;;;7.78;2.70;;;15.60;99.90;;;;;;4898330;29;20084;-34
2023/05/28 07:07:00;;;;;;;7.53;2.60;;;15.70;99.90;;;;;;4899021;29;20074;-34
2023/05/28 07:09:26;;;;;;;6.43;2.42;;;15.80;99.90;;;;;;4899310;29;20071;-34
2023/05/28 07:11:51;;;;;;;10.85;2.60;;;15.90;99.90;;;;;;4904269;29;20051;-34
2023/05/28 07:14:17;;;;;;;8.60;2.55;;;16.00;99.90;;;;;;4907560;29;20083;-34
2023/05/28 07:16:43;;;;;;;9.48;2.10;;;16.10;99.90;;;;;;4908115;29;20051;-34
2023/05/28 07:19:08;;;;;;;11.10;2.45;;;16.20;99.90;;;;;;4910084;29;20067;-34
2023/05/28 07:21:37;;;;;;;10.32;2.35;;;16.30;99.90;;;;;;4906005;29;20469;-34
2023/05/28 07:24:05;;;;;;;8.43;2.33;;;16.40;99.90;;;;;;4906115;29;22186;-34
2023/05/28 07:26:30;;;;;;;5.65;2.60;;;16.50;99.90;;;;;;4909335;29;20111;-35
2023/05/28 07:28:56;;;;;;;10.50;2.67;;;16.60;99.90;;;;;;4905163;29;20068;-35
2023/05/28 07:31:22;;;;;;;7.15;2.25;;;16.70;99.90;;;;;;4905845;29;20058;-35
2023/05/28 07:33:49;;;;;;;10.70;2.53;;;16.80;99.90;;;;;;4904740;29;20066;-35
2023/05/28 07:36:14;;;;;;;9.98;2.75;;;17.00;99.90;;;;;;4906987;29;20558;-35
2023/05/28 07:38:41;;;;;;;7.70;2.50;;;17.10;99.90;;;;;;4904741;29;20060;-35
2023/05/28 07:41:06;;;;;;;7.28;2.30;;;17.20;99.90;;;;;;4903633;29;20517;-35
2023/05/28 07:43:32;;;;;;;12.85;2.95;;;17.30;99.90;;;;;;4901128;29;20063;-35
2023/05/28 07:45:58;;;;;;;7.47;2.50;;;17.40;99.90;;;;;;4903290;29;20519;-35
2023/05/28 07:48:23;;;;;;;8.63;2.70;;;17.40;99.90;;;;;;4905034;29;20059;-35
2023/05/28 07:50:49;;;;;;;11.55;2.45;;;17.50;99.90;;;;;;4901681;29;20111;-34
2023/05/28 07:53:16;;;;;;;7.25;2.47;;;17.50;99.90;;;;;;4898429;29;20474;-35
2023/05/28 07:55:42;;;;;;;5.90;2.03;;;17.70;99.90;;;;;;4901982;29;20052;-35
2023/05/28 07:58:07;;;;;;;7.82;2.63;;;17.70;99.90;;;;;;4899708;29;20051;-35
2023/05/28 08:00:33;;;;;;;7.57;2.53;;;17.90;99.90;;;;;;4902869;29;20082;-35
2023/05/28 08:02:59;;;;;;;6.70;1.98;;;17.90;99.90;;;;;;4896592;29;20135;-35
2023/05/28 08:05:24;;;;;;;9.98;2.38;;;18.00;99.90;;;;;;4893434;29;20044;-35
2023/05/28 08:07:50;;;;;;;10.10;3.25;;;18.10;99.90;;;;;;4899655;29;20055;-35
2023/05/28 08:10:15;;;;;;;7.18;2.35;;;18.20;99.90;;;;;;4899076;29;20062;-35
2023/05/28 08:12:41;;;;;;;7.65;3.35;;;18.20;99.90;;;;;;4902995;29;20064;-35
2023/05/28 08:15:07;;;;;;;7.47;2.60;;;18.30;99.90;;;;;;4904122;29;20079;-35
2023/05/28 08:17:33;;;;;;;10.95;3.10;;;18.40;99.90;;;;;;4899510;29;20078;-36
2023/05/28 08:19:59;;;;;;;8.35;2.50;;;18.40;99.90;;;;;;4898216;29;20059;-35
2023/05/28 08:22:24;;;;;;;6.68;2.65;;;18.30;99.90;;;;;;4909020;29;20075;-35
2023/05/28 08:24:50;;;;;;;6.50;2.20;;;18.40;99.90;;;;;;4903739;29;20056;-35
2023/05/28 08:27:16;;;;;;;8.07;2.58;;;18.40;99.90;;;;;;4902418;29;20099;-35
2023/05/28 08:29:41;;;;;;;8.50;2.80;;;18.50;99.90;;;;;;4899355;29;20055;-35
2023/05/28 08:32:07;;;;;;;6.95;2.38;;;18.50;99.90;;;;;;4896216;29;21743;-35
2023/05/28 08:34:36;;;;;;;6.35;2.35;;;18.70;99.90;;;;;;4908590;29;20048;-35
2023/05/28 08:37:03;;;;;;;6.10;2.45;;;18.80;99.90;;;;;;4900777;29;20165;-35
2023/05/28 08:39:30;;;;;;;9.40;2.50;;;18.90;99.90;;;;;;4902678;29;20063;-36
2023/05/28 08:41:56;;;;;;;8.50;2.97;;;19.10;99.90;;;;;;4899241;29;20146;-35
2023/05/28 08:44:21;;;;;;;9.45;2.45;;;19.20;99.90;;;;;;4904711;29;20063;-36
2023/05/28 08:46:48;;;;;;;6.75;3.03;;;19.30;99.90;;;;;;4904483;29;20060;-35
2023/05/28 08:49:17;;;;;;;9.77;3.03;;;19.40;99.90;;;;;;4900862;29;20051;-36
2023/05/28 08:51:48;;;;;;;6.88;2.35;;;19.50;99.90;;;;;;4905273;29;20100;-36
2023/05/28 08:54:14;;;;;;;10.05;2.85;;;19.50;99.90;;;;;;4894436;29;20051;-35
2023/05/28 08:56:40;;;;;;;7.78;2.38;;;19.40;99.90;;;;;;4900989;29;20099;-35
2023/05/28 08:59:10;;;;;;;10.32;3.17;;;19.40;99.90;;;;;;4902670;29;20462;-36
2023/05/28 09:01:37;;;;;;;8.90;3.15;;;19.50;99.90;;;;;;4904403;29;20059;-35
2023/05/28 09:04:03;;;;;;;8.00;3.35;;;19.50;99.90;;;;;;4901546;29;20055;-35
2023/05/28 09:06:31;;;;;;;7.82;2.70;;;19.60;99.90;;;;;;4903096;29;20048;-35
2023/05/28 09:08:57;;;;;;;8.88;2.70;;;19.60;99.90;;;;;;4899279;29;20102;-35
2023/05/28 09:11:23;;;;;;;8.25;3.10;;;19.70;99.90;;;;;;4903036;29;20059;-35
2023/05/28 09:13:49;;;;;;;7.53;2.70;;;19.70;99.90;;;;;;4899804;29;20131;-35
2023/05/28 09:16:22;;;;;;;8.65;2.60;;;19.80;99.90;;;;;;4902572;29;20048;-35
2023/05/28 09:19:01;;;;;;;7.35;3.20;;;19.90;99.90;;;;;;4908739;29;20056;-36
2023/05/28 09:21:26;;;;;;;10.25;2.90;;;20.00;99.90;;;;;;4906208;29;20120;-36
2023/05/28 09:23:52;;;;;;;8.25;2.25;;;20.10;99.90;;;;;;4910131;29;20060;-35
2023/05/28 09:26:21;;;;;;;7.38;2.92;;;20.20;99.90;;;;;;4912761;29;20071;-35
2023/05/28 09:28:48;;;;;;;8.45;2.83;;;20.30;99.90;;;;;;4913014;29;20103;-35
2023/05/28 09:31:14;;;;;;;11.38;2.80;;;20.30;99.90;;;;;;4917512;29;20055;-35
2023/05/28 09:33:47;;;;;;;7.90;2.80;;;20.30;99.90;;;;;;4913533;29;20075;-35
2023/05/28 09:36:15;;;;;;;;;;;20.40;99.90;;;;;;4908040;29;20055;-35
2023/05/28 09:38:42;;;;;;;7.75;2.70;;;20.40;99.90;;;;;;4908686;29;19922;-36
2023/05/28 09:41:22;;;;;;;7.93;2.90;;;20.60;99.90;;;;;;4905190;29;20052;-37
2023/05/28 09:43:57;;;;;;;6.43;2.90;;;20.70;99.90;;;;;;4913193;29;20054;-37
2023/05/28 09:46:28;;;;;;;8.00;2.80;;;20.80;99.90;;;;;;4917034;29;20122;-37
2023/05/28 09:48:53;;;;;;;10.75;2.40;;;21.00;99.90;;;;;;4909549;29;20521;-37
2023/05/28 09:51:23;;;;;;;6.20;2.42;;;21.10;99.90;;;;;;4915484;29;20052;-37
2023/05/28 09:53:55;;;;;;;6.95;2.72;;;21.20;99.90;;;;;;4912435;29;20159;-37
2023/05/28 09:56:22;;;;;;;9.93;2.70;;;21.30;99.90;;;;;;4907793;29;20058;-37
2023/05/28 09:58:52;;;;;;;9.23;2.85;;;21.40;99.90;;;;;;4908883;29;20067;-37
2023/05/28 10:01:21;;;;;;;9.13;3.00;;;21.50;99.90;;;;;;4913484;29;20055;-37
2023/05/28 10:03:52;;;;;;;9.18;3.00;;;21.50;99.90;;;;;;4906958;29;20119;-37
2023/05/28 10:06:21;;;;;;;5.97;2.28;;;21.70;99.90;;;;;;4913360;29;20051;-37
2023/05/28 10:08:50;;;;;;;7.03;2.72;;;21.70;99.90;;;;;;4908537;29;20094;-36
2023/05/28 10:11:18;;;;;;;9.27;3.33;;;21.80;99.90;;;;;;4914361;29;20494;-36
2023/05/28 10:13:45;;;;;;;7.05;2.10;;;21.80;99.90;;;;;;4912321;29;20151;-36
2023/05/28 10:16:12;;;;;;;8.70;3.08;;;21.90;99.90;;;;;;4905374;29;20542;-36
2023/05/28 10:18:38;;;;;;;7.03;2.22;;;21.90;99.90;;;;;;4911636;29;20096;-36
2023/05/28 10:21:05;;;;;;;7.88;3.20;;;21.90;99.90;;;;;;4910835;29;20413;-36
2023/05/28 10:23:32;;;;;;;10.73;2.95;;;22.10;99.90;;;;;;4909131;29;20048;-37
2023/05/28 10:25:58;;;;;;;9.32;2.90;;;22.20;99.90;;;;;;4910538;29;20102;-37
2023/05/28 10:28:24;;;;;;;10.65;2.88;;;22.20;99.90;;;;;;4907790;29;20051;-36
2023/05/28 10:31:06;;;;;;;8.32;2.83;;;22.30;99.90;;;;;;4906299;29;20051;-37
2023/05/28 10:33:41;;;;;;;6.32;2.47;;;22.30;99.90;;;;;;4893683;29;20650;-36
2023/05/28 10:36:12;;;;;;;6.15;2.28;;;22.30;99.90;;;;;;4909439;29;20411;-36
2023/05/28 10:38:52;;;;;;;7.28;2.67;;;22.30;99.90;;;;;;4905853;29;20064;-36
2023/05/28 10:41:21;;;;;;;7.70;2.70;;;22.40;99.90;;;;;;4907485;29;20064;-36
2023/05/28 10:43:48;;;;;;;8.98;2.50;;;22.50;99.90;;;;;;4906967;29;20507;-36
2023/05/28 10:46:23;;;;;;;8.10;2.88;;;22.60;99.90;;;;;;4906573;29;20585;-36
2023/05/28 10:49:20;;;;;;;6.13;2.58;;;22.70;99.90;;;;;;4907856;29;20502;-37
2023/05/28 10:52:00;;;;;;;10.88;2.80;;;22.80;99.90;;;;;;4899743;29;20048;-37
2023/05/28 10:54:52;;;;;;;9.10;2.60;;;22.90;99.90;;;;;;4906434;29;20051;-37
2023/05/28 10:57:20;;;;;;;6.18;2.70;;;22.90;99.90;;;;;;4907062;29;20060;-36
2023/05/28 10:59:57;;;;;;;6.32;2.80;;;23.00;99.90;;;;;;4910437;29;20423;-36
2023/05/28 11:02:25;;;;;;;7.90;3.05;;;23.00;99.90;;;;;;4909699;29;20405;-37
2023/05/28 11:04:54;;;;;;;4.70;2.28;;;23.10;99.90;;;;;;4911229;29;20562;-36
2023/05/28 11:07:21;;;;;;;8.80;2.10;;;23.20;99.90;;;;;;4900189;29;20061;-37
2023/05/28 11:09:49;;;;;;;6.13;2.22;;;23.30;99.90;;;;;;4905721;29;20056;-37
2023/05/28 11:12:15;;;;;;;7.22;2.60;;;23.40;99.90;;;;;;4905092;29;20051;-37
2023/05/28 11:14:41;;;;;;;5.80;2.60;;;23.40;99.90;;;;;;4899552;29;20048;-36
2023/05/28 11:17:13;;;;;;;6.30;2.50;;;23.50;99.90;;;;;;4901271;29;20582;-37
2023/05/28 11:19:49;;;;;;;6.20;2.63;;;23.60;99.90;;;;;;4903929;29;20121;-38
2023/05/28 11:22:18;;;;;;;5.35;2.35;;;23.60;99.90;;;;;;4895745;29;20055;-37
2023/05/28 11:24:51;;;;;;;5.88;2.20;;;23.80;99.90;;;;;;4896373;29;20536;-37
2023/05/28 11:27:17;;;;;;;5.93;2.47;;;23.80;99.90;;;;;;4896657;29;20080;-37
2023/05/28 11:29:42;;;;;;;6.90;2.20;;;23.90;99.90;;;;;;4901620;29;20142;-36
2023/05/28 11:32:08;;;;;;;4.88;2.08;;;23.90;99.90;;;;;;4904842;29;20043;-36
2023/05/28 11:34:36;;;;;;;6.43;2.50;;;23.90;99.90;;;;;;4907708;29;20056;-36
2023/05/28 11:37:05;;;;;;;4.57;2.05;;;24.00;99.90;;;;;;4904914;29;20582;-36
2023/05/28 11:39:30;;;;;;;4.90;1.80;;;24.00;99.90;;;;;;4905262;29;20142;-36
2023/05/28 11:41:56;;;;;;;6.22;2.35;;;24.10;99.90;;;;;;4909733;29;20188;-36
2023/05/28 11:44:22;;;;;;;7.30;2.50;;;24.20;99.90;;;;;;4908869;29;20071;-35
2023/05/28 11:46:55;;;;;;;5.68;2.10;;;24.40;99.90;;;;;;4902363;29;21594;-35
2023/05/28 11:49:22;;;;;;;6.68;2.60;;;24.40;99.90;;;;;;4901768;29;20491;-35
2023/05/28 11:51:50;;;;;;;4.00;1.77;;;24.50;99.90;;;;;;4910647;29;20059;-35
2023/05/28 11:54:16;;;;;;;4.15;1.90;;;24.60;99.90;;;;;;4909735;29;20056;-35
2023/05/28 11:56:41;;;;;;;7.10;1.98;;;24.60;99.90;;;;;;4894277;29;20580;-35
2023/05/28 11:59:07;;;;;;;5.88;2.05;;;24.60;99.90;;;;;;4913153;29;20067;-35
2023/05/28 12:01:36;;;;;;;5.18;2.05;;;24.60;99.90;;;;;;4905703;29;20422;-35
2023/05/28 12:04:05;;;;;;;5.60;2.30;;;24.60;99.90;;;;;;4914613;29;20604;-35
2023/05/28 12:06:33;;;;;;;4.72;1.90;;;24.60;99.90;;;;;;4901671;29;20059;-35
2023/05/28 12:09:08;;;;;;;9.75;2.58;;;24.60;99.90;;;;;;4908918;29;20569;-35
2023/05/28 12:11:34;;;;;;;5.32;2.22;;;24.60;99.90;;;;;;4907077;29;20143;-35
2023/05/28 12:14:15;;;;;;;7.47;2.30;;;24.60;99.90;;;;;;4907100;29;20055;-35
2023/05/28 12:16:48;;;;;;;7.10;2.55;;;24.70;99.90;;;;;;4904419;29;20083;-35
2023/05/28 12:19:16;;;;;;;4.13;2.28;;;24.80;99.90;;;;;;4906553;29;20059;-35
2023/05/28 12:21:43;;;;;;;4.22;1.92;;;24.80;99.90;;;;;;4905182;29;20079;-34
2023/05/28 12:24:14;;;;;;;4.85;2.00;;;24.80;99.90;;;;;;4902012;29;20060;-35
2023/05/28 12:26:44;;;;;;;4.35;1.95;;;24.80;99.90;;;;;;4896831;29;20098;-34
2023/05/28 12:29:10;;;;;;;4.82;2.03;;;24.90;99.90;;;;;;4908831;29;20056;-35
2023/05/28 12:31:36;;;;;;;3.85;1.85;;;25.00;99.90;;;;;;4911046;29;20082;-34
2023/05/28 12:34:02;;;;;;;3.65;1.80;;;25.10;99.90;;;;;;4908757;29;20123;-34
2023/05/28 12:36:27;;;;;;;4.88;2.15;;;25.20;99.90;;;;;;4908894;29;20546;-34
2023/05/28 12:38:53;;;;;;;4.40;1.88;;;25.40;99.90;;;;;;4889760;29;20493;-34
2023/05/28 12:41:20;;;;;;;4.65;1.92;;;25.40;99.90;;;;;;4908026;29;20066;-34